sensor_id;sensor_type;location;lat;lon;timestamp;P1;durP1;ratioP1;P2;durP2;ratioP2
12760;SDS011;6444;49.742;6.114;2022-11-20T00:02:06;11.87;;;9.63;;
12760;SDS011;6444;49.742;6.114;2022-11-20T00:04:32;15.65;;;11.88;;
12760;SDS011;6444;49.742;6.114;2022-11-20T00:06:59;12.90;;;9.50;;
12760;SDS011;6444;49.742;6.114;2022-11-20T00:09:25;13.23;;;10.00;;
12760;SDS011;6444;49.742;6.114;2022-11-20T00:11:52;13.60;;;9.50;;
12760;SDS011;6444;49.742;6.114;2022-11-20T00:14:19;16.97;;;9.93;;
12760;SDS011;6444;49.742;6.114;2022-11-20T00:16:46;13.95;;;9.23;;
12760;SDS011;6444;49.742;6.114;2022-11-20T00:19:13;16.83;;;9.80;;
12760;SDS011;6444;49.742;6.114;2022-11-20T00:21:40;18.40;;;10.10;;
12760;SDS011;6444;49.742;6.114;2022-11-20T00:24:10;14.33;;;9.67;;
12760;SDS011;6444;49.742;6.114;2022-11-20T00:26:36;12.80;;;10.07;;
12760;SDS011;6444;49.742;6.114;2022-11-20T00:29:03;16.57;;;10.13;;
12760;SDS011;6444;49.742;6.114;2022-11-20T00:31:30;16.67;;;10.90;;
12760;SDS011;6444;49.742;6.114;2022-11-20T00:33:56;17.00;;;10.17;;
12760;SDS011;6444;49.742;6.114;2022-11-20T00:36:25;15.23;;;9.57;;
12760;SDS011;6444;49.742;6.114;2022-11-20T00:38:53;12.87;;;9.27;;
12760;SDS011;6444;49.742;6.114;2022-11-20T00:41:19;13.00;;;9.83;;
12760;SDS011;6444;49.742;6.114;2022-11-20T00:43:46;14.77;;;11.48;;
12760;SDS011;6444;49.742;6.114;2022-11-20T00:46:16;13.62;;;10.20;;
12760;SDS011;6444;49.742;6.114;2022-11-20T00:48:42;12.07;;;9.27;;
12760;SDS011;6444;49.742;6.114;2022-11-20T00:51:08;15.10;;;11.80;;
12760;SDS011;6444;49.742;6.114;2022-11-20T00:53:35;11.33;;;9.33;;
12760;SDS011;6444;49.742;6.114;2022-11-20T00:56:05;13.10;;;8.73;;
12760;SDS011;6444;49.742;6.114;2022-11-20T00:58:35;11.47;;;8.77;;
12760;SDS011;6444;49.742;6.114;2022-11-20T01:01:08;13.53;;;9.53;;
12760;SDS011;6444;49.742;6.114;2022-11-20T01:03:35;16.20;;;9.40;;
12760;SDS011;6444;49.742;6.114;2022-11-20T01:06:04;15.45;;;13.00;;
12760;SDS011;6444;49.742;6.114;2022-11-20T01:08:31;15.43;;;10.95;;
12760;SDS011;6444;49.742;6.114;2022-11-20T01:11:05;14.03;;;10.27;;
12760;SDS011;6444;49.742;6.114;2022-11-20T01:13:26;14.63;;;9.70;;
12760;SDS011;6444;49.742;6.114;2022-11-20T01:16:09;14.10;;;10.13;;
12760;SDS011;6444;49.742;6.114;2022-11-20T01:18:35;13.67;;;10.23;;
12760;SDS011;6444;49.742;6.114;2022-11-20T01:21:04;16.70;;;13.62;;
12760;SDS011;6444;49.742;6.114;2022-11-20T01:23:31;14.73;;;11.23;;
12760;SDS011;6444;49.742;6.114;2022-11-20T01:25:58;17.12;;;13.65;;
12760;SDS011;6444;49.742;6.114;2022-11-20T01:28:23;15.43;;;11.57;;
12760;SDS011;6444;49.742;6.114;2022-11-20T01:30:50;13.33;;;10.00;;
12760;SDS011;6444;49.742;6.114;2022-11-20T01:33:16;17.10;;;10.40;;
12760;SDS011;6444;49.742;6.114;2022-11-20T01:35:44;15.90;;;10.60;;
12760;SDS011;6444;49.742;6.114;2022-11-20T01:38:10;18.23;;;10.50;;
12760;SDS011;6444;49.742;6.114;2022-11-20T01:40:37;14.17;;;10.67;;
12760;SDS011;6444;49.742;6.114;2022-11-20T01:43:17;15.20;;;10.00;;
12760;SDS011;6444;49.742;6.114;2022-11-20T01:46:05;18.97;;;10.40;;
12760;SDS011;6444;49.742;6.114;2022-11-20T01:48:42;15.43;;;10.47;;
12760;SDS011;6444;49.742;6.114;2022-11-20T01:51:13;14.53;;;10.43;;
12760;SDS011;6444;49.742;6.114;2022-11-20T01:53:38;15.87;;;10.07;;
12760;SDS011;6444;49.742;6.114;2022-11-20T01:56:06;16.07;;;10.77;;
12760;SDS011;6444;49.742;6.114;2022-11-20T01:58:32;15.70;;;9.57;;
12760;SDS011;6444;49.742;6.114;2022-11-20T02:00:58;13.30;;;9.07;;
12760;SDS011;6444;49.742;6.114;2022-11-20T02:03:25;16.70;;;10.43;;
12760;SDS011;6444;49.742;6.114;2022-11-20T02:05:58;16.73;;;12.52;;
12760;SDS011;6444;49.742;6.114;2022-11-20T02:08:34;13.13;;;9.40;;
12760;SDS011;6444;49.742;6.114;2022-11-20T02:11:00;13.07;;;9.10;;
12760;SDS011;6444;49.742;6.114;2022-11-20T02:13:27;14.98;;;11.70;;
12760;SDS011;6444;49.742;6.114;2022-11-20T02:16:31;12.53;;;9.27;;
12760;SDS011;6444;49.742;6.114;2022-11-20T02:18:35;14.97;;;9.00;;
12760;SDS011;6444;49.742;6.114;2022-11-20T02:21:04;12.10;;;8.80;;
12760;SDS011;6444;49.742;6.114;2022-11-20T02:26:33;10.30;;;7.97;;
12760;SDS011;6444;49.742;6.114;2022-11-20T02:29:04;12.50;;;8.50;;
12760;SDS011;6444;49.742;6.114;2022-11-20T02:31:35;11.53;;;8.73;;
12760;SDS011;6444;49.742;6.114;2022-11-20T02:34:03;11.07;;;8.33;;
12760;SDS011;6444;49.742;6.114;2022-11-20T02:36:30;13.32;;;10.82;;
12760;SDS011;6444;49.742;6.114;2022-11-20T02:38:56;12.00;;;8.87;;
12760;SDS011;6444;49.742;6.114;2022-11-20T02:41:30;11.53;;;9.07;;
12760;SDS011;6444;49.742;6.114;2022-11-20T02:43:50;9.33;;;7.17;;
12760;SDS011;6444;49.742;6.114;2022-11-20T02:46:16;9.23;;;6.93;;
12760;SDS011;6444;49.742;6.114;2022-11-20T02:48:43;11.70;;;7.30;;
12760;SDS011;6444;49.742;6.114;2022-11-20T02:51:09;10.20;;;7.53;;
12760;SDS011;6444;49.742;6.114;2022-11-20T02:53:36;10.00;;;7.03;;
12760;SDS011;6444;49.742;6.114;2022-11-20T02:56:03;10.93;;;7.33;;
12760;SDS011;6444;49.742;6.114;2022-11-20T02:58:29;11.30;;;8.07;;
12760;SDS011;6444;49.742;6.114;2022-11-20T03:00:56;13.63;;;8.43;;
12760;SDS011;6444;49.742;6.114;2022-11-20T03:03:23;12.13;;;8.37;;
12760;SDS011;6444;49.742;6.114;2022-11-20T03:05:50;12.57;;;8.37;;
12760;SDS011;6444;49.742;6.114;2022-11-20T03:08:17;12.50;;;7.97;;
12760;SDS011;6444;49.742;6.114;2022-11-20T03:15:56;14.15;;;10.57;;
12760;SDS011;6444;49.742;6.114;2022-11-20T03:18:23;10.67;;;7.87;;
12760;SDS011;6444;49.742;6.114;2022-11-20T03:20:49;14.33;;;7.17;;
12760;SDS011;6444;49.742;6.114;2022-11-20T03:23:16;10.03;;;7.27;;
12760;SDS011;6444;49.742;6.114;2022-11-20T03:25:43;10.17;;;7.77;;
12760;SDS011;6444;49.742;6.114;2022-11-20T03:28:09;11.93;;;7.80;;
12760;SDS011;6444;49.742;6.114;2022-11-20T03:30:36;10.67;;;7.37;;
12760;SDS011;6444;49.742;6.114;2022-11-20T03:33:02;11.40;;;6.80;;
12760;SDS011;6444;49.742;6.114;2022-11-20T03:35:29;12.63;;;9.23;;
12760;SDS011;6444;49.742;6.114;2022-11-20T03:37:56;10.67;;;7.40;;
12760;SDS011;6444;49.742;6.114;2022-11-20T03:40:22;10.70;;;6.93;;
12760;SDS011;6444;49.742;6.114;2022-11-20T03:42:49;10.17;;;7.17;;
12760;SDS011;6444;49.742;6.114;2022-11-20T03:45:16;10.43;;;7.00;;
12760;SDS011;6444;49.742;6.114;2022-11-20T03:47:43;9.57;;;6.90;;
12760;SDS011;6444;49.742;6.114;2022-11-20T03:50:11;8.33;;;6.40;;
12760;SDS011;6444;49.742;6.114;2022-11-20T03:52:36;10.65;;;8.48;;
12760;SDS011;6444;49.742;6.114;2022-11-20T03:55:03;9.70;;;7.83;;
12760;SDS011;6444;49.742;6.114;2022-11-20T03:57:30;10.77;;;7.90;;
12760;SDS011;6444;49.742;6.114;2022-11-20T03:59:57;12.07;;;7.77;;
12760;SDS011;6444;49.742;6.114;2022-11-20T04:02:24;10.03;;;7.33;;
12760;SDS011;6444;49.742;6.114;2022-11-20T04:04:50;8.63;;;7.40;;
12760;SDS011;6444;49.742;6.114;2022-11-20T04:07:17;9.57;;;7.60;;
12760;SDS011;6444;49.742;6.114;2022-11-20T04:09:44;11.43;;;8.47;;
12760;SDS011;6444;49.742;6.114;2022-11-20T04:12:11;10.30;;;7.80;;
12760;SDS011;6444;49.742;6.114;2022-11-20T04:14:37;11.90;;;8.00;;
12760;SDS011;6444;49.742;6.114;2022-11-20T04:17:04;9.80;;;7.10;;
12760;SDS011;6444;49.742;6.114;2022-11-20T04:19:31;11.33;;;7.63;;
12760;SDS011;6444;49.742;6.114;2022-11-20T04:21:58;12.73;;;8.17;;
12760;SDS011;6444;49.742;6.114;2022-11-20T04:24:25;10.67;;;7.43;;
12760;SDS011;6444;49.742;6.114;2022-11-20T04:26:51;9.90;;;7.40;;
12760;SDS011;6444;49.742;6.114;2022-11-20T04:29:18;12.40;;;8.50;;
12760;SDS011;6444;49.742;6.114;2022-11-20T04:31:45;12.07;;;8.30;;
12760;SDS011;6444;49.742;6.114;2022-11-20T04:34:11;12.70;;;8.50;;
12760;SDS011;6444;49.742;6.114;2022-11-20T04:36:39;15.13;;;9.17;;
12760;SDS011;6444;49.742;6.114;2022-11-20T04:39:05;13.90;;;8.73;;
12760;SDS011;6444;49.742;6.114;2022-11-20T04:41:33;15.90;;;9.43;;
12760;SDS011;6444;49.742;6.114;2022-11-20T04:44:00;15.53;;;9.97;;
12760;SDS011;6444;49.742;6.114;2022-11-20T04:46:26;14.10;;;10.00;;
12760;SDS011;6444;49.742;6.114;2022-11-20T04:48:52;16.67;;;9.53;;
12760;SDS011;6444;49.742;6.114;2022-11-20T04:51:19;14.00;;;9.50;;
12760;SDS011;6444;49.742;6.114;2022-11-20T04:53:46;16.20;;;10.20;;
12760;SDS011;6444;49.742;6.114;2022-11-20T04:56:12;16.67;;;10.43;;
12760;SDS011;6444;49.742;6.114;2022-11-20T04:58:40;15.37;;;9.77;;
12760;SDS011;6444;49.742;6.114;2022-11-20T05:01:07;14.27;;;10.30;;
12760;SDS011;6444;49.742;6.114;2022-11-20T05:03:33;15.03;;;10.03;;
12760;SDS011;6444;49.742;6.114;2022-11-20T05:06:00;15.40;;;9.77;;
12760;SDS011;6444;49.742;6.114;2022-11-20T05:08:26;14.63;;;9.50;;
12760;SDS011;6444;49.742;6.114;2022-11-20T05:10:54;14.40;;;9.87;;
12760;SDS011;6444;49.742;6.114;2022-11-20T05:13:20;14.53;;;9.97;;
12760;SDS011;6444;49.742;6.114;2022-11-20T05:15:47;15.83;;;10.70;;
12760;SDS011;6444;49.742;6.114;2022-11-20T05:18:14;16.87;;;10.57;;
12760;SDS011;6444;49.742;6.114;2022-11-20T05:20:41;15.20;;;12.43;;
12760;SDS011;6444;49.742;6.114;2022-11-20T05:23:08;13.70;;;9.23;;
12760;SDS011;6444;49.742;6.114;2022-11-20T05:25:34;14.73;;;9.67;;
12760;SDS011;6444;49.742;6.114;2022-11-20T05:28:01;17.73;;;12.85;;
12760;SDS011;6444;49.742;6.114;2022-11-20T05:30:27;14.57;;;10.17;;
12760;SDS011;6444;49.742;6.114;2022-11-20T05:32:55;14.97;;;10.30;;
12760;SDS011;6444;49.742;6.114;2022-11-20T05:35:21;18.80;;;10.50;;
12760;SDS011;6444;49.742;6.114;2022-11-20T05:37:48;14.73;;;9.43;;
12760;SDS011;6444;49.742;6.114;2022-11-20T05:40:15;14.70;;;9.83;;
12760;SDS011;6444;49.742;6.114;2022-11-20T05:42:41;13.83;;;8.20;;
12760;SDS011;6444;49.742;6.114;2022-11-20T05:45:09;15.80;;;10.50;;
12760;SDS011;6444;49.742;6.114;2022-11-20T05:47:35;14.10;;;9.50;;
12760;SDS011;6444;49.742;6.114;2022-11-20T05:50:02;14.57;;;9.97;;
12760;SDS011;6444;49.742;6.114;2022-11-20T05:52:29;16.27;;;11.37;;
12760;SDS011;6444;49.742;6.114;2022-11-20T05:54:56;16.13;;;11.67;;
12760;SDS011;6444;49.742;6.114;2022-11-20T05:57:23;15.07;;;10.20;;
12760;SDS011;6444;49.742;6.114;2022-11-20T05:59:49;18.20;;;11.30;;
12760;SDS011;6444;49.742;6.114;2022-11-20T06:02:16;17.10;;;10.77;;
12760;SDS011;6444;49.742;6.114;2022-11-20T06:04:42;15.77;;;12.98;;
12760;SDS011;6444;49.742;6.114;2022-11-20T06:07:09;14.83;;;10.70;;
12760;SDS011;6444;49.742;6.114;2022-11-20T06:09:36;12.77;;;9.40;;
12760;SDS011;6444;49.742;6.114;2022-11-20T06:12:02;15.13;;;9.63;;
12760;SDS011;6444;49.742;6.114;2022-11-20T06:14:29;13.23;;;10.10;;
12760;SDS011;6444;49.742;6.114;2022-11-20T06:16:56;14.53;;;10.03;;
12760;SDS011;6444;49.742;6.114;2022-11-20T06:19:22;14.00;;;9.60;;
12760;SDS011;6444;49.742;6.114;2022-11-20T06:21:49;14.37;;;10.27;;
12760;SDS011;6444;49.742;6.114;2022-11-20T06:24:16;12.87;;;8.70;;
12760;SDS011;6444;49.742;6.114;2022-11-20T06:26:43;14.70;;;8.80;;
12760;SDS011;6444;49.742;6.114;2022-11-20T06:29:09;11.80;;;8.67;;
12760;SDS011;6444;49.742;6.114;2022-11-20T06:31:36;13.30;;;9.50;;
12760;SDS011;6444;49.742;6.114;2022-11-20T06:34:06;12.57;;;8.73;;
12760;SDS011;6444;49.742;6.114;2022-11-20T06:36:29;12.40;;;9.20;;
12760;SDS011;6444;49.742;6.114;2022-11-20T06:38:56;14.47;;;9.10;;
12760;SDS011;6444;49.742;6.114;2022-11-20T06:41:23;14.10;;;11.15;;
12760;SDS011;6444;49.742;6.114;2022-11-20T06:43:50;14.67;;;9.60;;
12760;SDS011;6444;49.742;6.114;2022-11-20T06:46:17;12.33;;;8.40;;
12760;SDS011;6444;49.742;6.114;2022-11-20T06:48:43;13.00;;;8.83;;
12760;SDS011;6444;49.742;6.114;2022-11-20T06:51:10;11.07;;;9.07;;
12760;SDS011;6444;49.742;6.114;2022-11-20T06:53:37;12.90;;;7.73;;
12760;SDS011;6444;49.742;6.114;2022-11-20T06:56:03;11.27;;;7.80;;
12760;SDS011;6444;49.742;6.114;2022-11-20T06:58:30;14.57;;;9.37;;
12760;SDS011;6444;49.742;6.114;2022-11-20T07:00:59;14.52;;;11.12;;
12760;SDS011;6444;49.742;6.114;2022-11-20T07:03:29;9.95;;;8.55;;
12760;SDS011;6444;49.742;6.114;2022-11-20T07:05:55;12.50;;;7.90;;
12760;SDS011;6444;49.742;6.114;2022-11-20T07:08:22;9.85;;;7.25;;
12760;SDS011;6444;49.742;6.114;2022-11-20T07:10:48;9.70;;;7.87;;
12760;SDS011;6444;49.742;6.114;2022-11-20T07:13:15;14.37;;;8.90;;
12760;SDS011;6444;49.742;6.114;2022-11-20T07:15:42;13.17;;;9.33;;
12760;SDS011;6444;49.742;6.114;2022-11-20T07:18:09;12.17;;;8.10;;
12760;SDS011;6444;49.742;6.114;2022-11-20T07:20:36;9.60;;;7.37;;
12760;SDS011;6444;49.742;6.114;2022-11-20T07:23:02;11.40;;;8.27;;
12760;SDS011;6444;49.742;6.114;2022-11-20T07:25:30;11.00;;;7.60;;
12760;SDS011;6444;49.742;6.114;2022-11-20T07:27:57;11.60;;;8.07;;
12760;SDS011;6444;49.742;6.114;2022-11-20T07:30:23;16.07;;;9.03;;
12760;SDS011;6444;49.742;6.114;2022-11-20T07:32:51;14.40;;;9.73;;
12760;SDS011;6444;49.742;6.114;2022-11-20T07:35:17;15.33;;;10.10;;
12760;SDS011;6444;49.742;6.114;2022-11-20T07:37:43;11.23;;;8.47;;
12760;SDS011;6444;49.742;6.114;2022-11-20T07:40:10;12.33;;;8.60;;
12760;SDS011;6444;49.742;6.114;2022-11-20T07:42:37;18.27;;;12.13;;
12760;SDS011;6444;49.742;6.114;2022-11-20T07:45:04;12.17;;;8.83;;
12760;SDS011;6444;49.742;6.114;2022-11-20T07:47:36;13.57;;;9.30;;
12760;SDS011;6444;49.742;6.114;2022-11-20T07:50:04;12.57;;;9.67;;
12760;SDS011;6444;49.742;6.114;2022-11-20T07:52:30;15.00;;;9.90;;
12760;SDS011;6444;49.742;6.114;2022-11-20T07:54:57;18.27;;;12.07;;
12760;SDS011;6444;49.742;6.114;2022-11-20T07:57:24;33.07;;;26.33;;
12760;SDS011;6444;49.742;6.114;2022-11-20T07:59:50;13.00;;;9.37;;
12760;SDS011;6444;49.742;6.114;2022-11-20T08:02:17;11.68;;;9.00;;
12760;SDS011;6444;49.742;6.114;2022-11-20T08:04:44;11.57;;;7.93;;
12760;SDS011;6444;49.742;6.114;2022-11-20T08:07:11;14.20;;;8.03;;
12760;SDS011;6444;49.742;6.114;2022-11-20T08:09:38;11.27;;;9.00;;
12760;SDS011;6444;49.742;6.114;2022-11-20T08:12:04;9.57;;;7.20;;
12760;SDS011;6444;49.742;6.114;2022-11-20T08:14:49;10.15;;;6.28;;
12760;SDS011;6444;49.742;6.114;2022-11-20T08:17:15;9.63;;;5.70;;
12760;SDS011;6444;49.742;6.114;2022-11-20T08:19:42;10.77;;;6.10;;
12760;SDS011;6444;49.742;6.114;2022-11-20T08:22:09;7.78;;;6.00;;
12760;SDS011;6444;49.742;6.114;2022-11-20T08:24:36;7.15;;;4.72;;
12760;SDS011;6444;49.742;6.114;2022-11-20T08:27:03;5.25;;;4.47;;
12760;SDS011;6444;49.742;6.114;2022-11-20T08:29:29;6.97;;;5.55;;
12760;SDS011;6444;49.742;6.114;2022-11-20T08:31:57;8.05;;;6.07;;
12760;SDS011;6444;49.742;6.114;2022-11-20T08:34:23;31.25;;;22.00;;
12760;SDS011;6444;49.742;6.114;2022-11-20T08:36:50;17.60;;;14.43;;
12760;SDS011;6444;49.742;6.114;2022-11-20T08:39:17;10.53;;;7.87;;
12760;SDS011;6444;49.742;6.114;2022-11-20T08:41:43;9.23;;;5.40;;
12760;SDS011;6444;49.742;6.114;2022-11-20T08:44:10;8.73;;;7.30;;
12760;SDS011;6444;49.742;6.114;2022-11-20T08:46:37;7.83;;;5.30;;
12760;SDS011;6444;49.742;6.114;2022-11-20T08:49:10;6.03;;;4.78;;
12760;SDS011;6444;49.742;6.114;2022-11-20T08:51:33;7.80;;;5.30;;
12760;SDS011;6444;49.742;6.114;2022-11-20T08:53:59;7.55;;;5.18;;
12760;SDS011;6444;49.742;6.114;2022-11-20T08:56:27;5.73;;;4.87;;
12760;SDS011;6444;49.742;6.114;2022-11-20T08:58:53;5.70;;;5.07;;
12760;SDS011;6444;49.742;6.114;2022-11-20T09:01:20;6.57;;;5.00;;
12760;SDS011;6444;49.742;6.114;2022-11-20T09:03:47;10.47;;;5.73;;
12760;SDS011;6444;49.742;6.114;2022-11-20T09:06:13;7.67;;;4.60;;
12760;SDS011;6444;49.742;6.114;2022-11-20T09:08:40;10.37;;;5.63;;
12760;SDS011;6444;49.742;6.114;2022-11-20T09:11:08;6.70;;;5.20;;
12760;SDS011;6444;49.742;6.114;2022-11-20T09:13:35;8.00;;;4.87;;
12760;SDS011;6444;49.742;6.114;2022-11-20T09:16:05;7.43;;;4.63;;
12760;SDS011;6444;49.742;6.114;2022-11-20T09:18:28;8.67;;;5.37;;
12760;SDS011;6444;49.742;6.114;2022-11-20T09:20:58;7.95;;;5.45;;
12760;SDS011;6444;49.742;6.114;2022-11-20T09:23:30;11.13;;;6.77;;
12760;SDS011;6444;49.742;6.114;2022-11-20T09:25:54;34.20;;;23.37;;
12760;SDS011;6444;49.742;6.114;2022-11-20T09:28:21;14.95;;;11.43;;
12760;SDS011;6444;49.742;6.114;2022-11-20T09:30:47;16.20;;;11.63;;
12760;SDS011;6444;49.742;6.114;2022-11-20T09:33:14;12.52;;;9.00;;
12760;SDS011;6444;49.742;6.114;2022-11-20T09:35:40;20.48;;;13.95;;
12760;SDS011;6444;49.742;6.114;2022-11-20T09:38:07;30.37;;;21.40;;
12760;SDS011;6444;49.742;6.114;2022-11-20T09:40:34;15.33;;;7.57;;
12760;SDS011;6444;49.742;6.114;2022-11-20T09:45:30;17.98;;;12.15;;
12760;SDS011;6444;49.742;6.114;2022-11-20T09:48:32;32.35;;;23.02;;
12760;SDS011;6444;49.742;6.114;2022-11-20T09:51:16;20.73;;;13.38;;
12760;SDS011;6444;49.742;6.114;2022-11-20T09:54:05;16.98;;;10.80;;
12760;SDS011;6444;49.742;6.114;2022-11-20T09:56:27;10.98;;;7.15;;
12760;SDS011;6444;49.742;6.114;2022-11-20T09:58:54;12.23;;;7.22;;
12760;SDS011;6444;49.742;6.114;2022-11-20T10:01:21;10.05;;;6.57;;
12760;SDS011;6444;49.742;6.114;2022-11-20T10:03:56;9.35;;;4.60;;
12760;SDS011;6444;49.742;6.114;2022-11-20T10:06:33;5.50;;;3.97;;
12760;SDS011;6444;49.742;6.114;2022-11-20T10:14:16;10.90;;;6.18;;
12760;SDS011;6444;49.742;6.114;2022-11-20T10:16:41;7.95;;;4.47;;
12760;SDS011;6444;49.742;6.114;2022-11-20T10:27:00;10.13;;;6.95;;
12760;SDS011;6444;49.742;6.114;2022-11-20T10:29:35;7.70;;;5.05;;
12760;SDS011;6444;49.742;6.114;2022-11-20T10:32:02;8.57;;;5.15;;
12760;SDS011;6444;49.742;6.114;2022-11-20T10:36:55;18.12;;;11.32;;
12760;SDS011;6444;49.742;6.114;2022-11-20T10:42:15;5.47;;;4.32;;
12760;SDS011;6444;49.742;6.114;2022-11-20T10:44:39;6.22;;;3.85;;
12760;SDS011;6444;49.742;6.114;2022-11-20T10:47:24;10.35;;;6.78;;
12760;SDS011;6444;49.742;6.114;2022-11-20T10:49:51;14.30;;;9.90;;
12760;SDS011;6444;49.742;6.114;2022-11-20T10:55:04;10.23;;;5.90;;
12760;SDS011;6444;49.742;6.114;2022-11-20T10:57:49;6.53;;;4.60;;
12760;SDS011;6444;49.742;6.114;2022-11-20T11:00:34;8.18;;;5.40;;
12760;SDS011;6444;49.742;6.114;2022-11-20T11:03:00;10.13;;;6.22;;
12760;SDS011;6444;49.742;6.114;2022-11-20T11:05:50;7.28;;;3.90;;
12760;SDS011;6444;49.742;6.114;2022-11-20T11:07:59;5.80;;;3.47;;
12760;SDS011;6444;49.742;6.114;2022-11-20T11:11:11;6.15;;;3.15;;
12760;SDS011;6444;49.742;6.114;2022-11-20T11:13:04;7.60;;;5.22;;
12760;SDS011;6444;49.742;6.114;2022-11-20T11:15:38;7.85;;;4.82;;
12760;SDS011;6444;49.742;6.114;2022-11-20T11:18:04;7.55;;;3.03;;
12760;SDS011;6444;49.742;6.114;2022-11-20T11:20:30;6.12;;;3.40;;
12760;SDS011;6444;49.742;6.114;2022-11-20T11:22:57;9.38;;;5.65;;
12760;SDS011;6444;49.742;6.114;2022-11-20T11:25:25;7.70;;;4.20;;
12760;SDS011;6444;49.742;6.114;2022-11-20T11:27:51;6.55;;;4.80;;
12760;SDS011;6444;49.742;6.114;2022-11-20T11:30:18;15.40;;;9.93;;
12760;SDS011;6444;49.742;6.114;2022-11-20T11:32:44;5.43;;;3.40;;
12760;SDS011;6444;49.742;6.114;2022-11-20T11:35:22;6.18;;;3.87;;
12760;SDS011;6444;49.742;6.114;2022-11-20T11:37:53;5.05;;;2.70;;
12760;SDS011;6444;49.742;6.114;2022-11-20T11:40:28;7.03;;;3.30;;
12760;SDS011;6444;49.742;6.114;2022-11-20T11:42:58;9.02;;;3.85;;
12760;SDS011;6444;49.742;6.114;2022-11-20T11:45:21;8.55;;;4.62;;
12760;SDS011;6444;49.742;6.114;2022-11-20T11:47:48;5.43;;;3.20;;
12760;SDS011;6444;49.742;6.114;2022-11-20T11:50:21;8.77;;;4.00;;
12760;SDS011;6444;49.742;6.114;2022-11-20T12:00:58;5.55;;;2.47;;
12760;SDS011;6444;49.742;6.114;2022-11-20T12:05:59;3.85;;;2.70;;
12760;SDS011;6444;49.742;6.114;2022-11-20T12:08:27;7.37;;;3.37;;
12760;SDS011;6444;49.742;6.114;2022-11-20T12:11:03;5.95;;;3.47;;
12760;SDS011;6444;49.742;6.114;2022-11-20T12:13:47;5.12;;;3.62;;
12760;SDS011;6444;49.742;6.114;2022-11-20T12:16:17;7.22;;;3.10;;
12760;SDS011;6444;49.742;6.114;2022-11-20T12:18:43;5.18;;;2.92;;
12760;SDS011;6444;49.742;6.114;2022-11-20T12:21:20;6.22;;;2.28;;
12760;SDS011;6444;49.742;6.114;2022-11-20T12:29:21;6.15;;;2.00;;
12760;SDS011;6444;49.742;6.114;2022-11-20T12:32:01;3.80;;;2.55;;
12760;SDS011;6444;49.742;6.114;2022-11-20T12:34:43;3.37;;;2.55;;
12760;SDS011;6444;49.742;6.114;2022-11-20T12:37:30;9.13;;;6.85;;
12760;SDS011;6444;49.742;6.114;2022-11-20T12:39:55;5.45;;;3.85;;
12760;SDS011;6444;49.742;6.114;2022-11-20T12:45:59;3.22;;;1.65;;
12760;SDS011;6444;49.742;6.114;2022-11-20T12:53:58;6.93;;;2.65;;
12760;SDS011;6444;49.742;6.114;2022-11-20T12:56:39;3.00;;;1.77;;
12760;SDS011;6444;49.742;6.114;2022-11-20T13:07:36;3.65;;;2.10;;
12760;SDS011;6444;49.742;6.114;2022-11-20T13:10:03;4.25;;;2.22;;
12760;SDS011;6444;49.742;6.114;2022-11-20T13:15:21;3.95;;;1.80;;
12760;SDS011;6444;49.742;6.114;2022-11-20T13:17:42;4.47;;;1.85;;
12760;SDS011;6444;49.742;6.114;2022-11-20T13:20:14;3.87;;;1.83;;
12760;SDS011;6444;49.742;6.114;2022-11-20T13:22:43;4.85;;;3.95;;
12760;SDS011;6444;49.742;6.114;2022-11-20T13:25:09;7.20;;;4.32;;
12760;SDS011;6444;49.742;6.114;2022-11-20T13:27:35;3.35;;;2.10;;
12760;SDS011;6444;49.742;6.114;2022-11-20T13:30:12;4.35;;;1.83;;
12760;SDS011;6444;49.742;6.114;2022-11-20T13:32:29;3.42;;;2.03;;
12760;SDS011;6444;49.742;6.114;2022-11-20T13:34:56;6.40;;;2.20;;
12760;SDS011;6444;49.742;6.114;2022-11-20T13:37:29;3.53;;;1.92;;
12760;SDS011;6444;49.742;6.114;2022-11-20T13:40:04;5.90;;;2.07;;
12760;SDS011;6444;49.742;6.114;2022-11-20T13:42:23;7.82;;;3.20;;
12760;SDS011;6444;49.742;6.114;2022-11-20T13:44:48;3.17;;;1.60;;
12760;SDS011;6444;49.742;6.114;2022-11-20T13:47:20;2.50;;;2.00;;
12760;SDS011;6444;49.742;6.114;2022-11-20T13:49:49;3.87;;;2.00;;
12760;SDS011;6444;49.742;6.114;2022-11-20T13:57:54;6.10;;;2.67;;
12760;SDS011;6444;49.742;6.114;2022-11-20T14:00:18;4.72;;;2.45;;
12760;SDS011;6444;49.742;6.114;2022-11-20T14:03:01;5.57;;;3.08;;
12760;SDS011;6444;49.742;6.114;2022-11-20T14:05:28;4.32;;;2.20;;
12760;SDS011;6444;49.742;6.114;2022-11-20T14:07:55;3.10;;;1.70;;
12760;SDS011;6444;49.742;6.114;2022-11-20T14:10:22;5.53;;;1.92;;
12760;SDS011;6444;49.742;6.114;2022-11-20T14:12:48;6.90;;;1.70;;
12760;SDS011;6444;49.742;6.114;2022-11-20T14:15:28;3.17;;;1.98;;
12760;SDS011;6444;49.742;6.114;2022-11-20T14:17:56;6.10;;;2.13;;
12760;SDS011;6444;49.742;6.114;2022-11-20T14:20:24;2.47;;;1.37;;
12760;SDS011;6444;49.742;6.114;2022-11-20T14:22:49;3.72;;;2.20;;
12760;SDS011;6444;49.742;6.114;2022-11-20T14:27:43;4.70;;;1.83;;
12760;SDS011;6444;49.742;6.114;2022-11-20T14:30:16;6.80;;;2.47;;
12760;SDS011;6444;49.742;6.114;2022-11-20T14:32:42;4.60;;;2.05;;
12760;SDS011;6444;49.742;6.114;2022-11-20T14:35:09;3.47;;;2.00;;
12760;SDS011;6444;49.742;6.114;2022-11-20T14:37:36;3.53;;;1.97;;
12760;SDS011;6444;49.742;6.114;2022-11-20T14:40:05;7.10;;;4.93;;
12760;SDS011;6444;49.742;6.114;2022-11-20T14:42:31;11.00;;;6.40;;
12760;SDS011;6444;49.742;6.114;2022-11-20T14:44:58;4.60;;;2.40;;
12760;SDS011;6444;49.742;6.114;2022-11-20T14:47:25;8.07;;;2.45;;
12760;SDS011;6444;49.742;6.114;2022-11-20T14:49:51;4.95;;;2.03;;
12760;SDS011;6444;49.742;6.114;2022-11-20T14:52:18;6.03;;;1.95;;
12760;SDS011;6444;49.742;6.114;2022-11-20T14:54:45;4.78;;;2.20;;
12760;SDS011;6444;49.742;6.114;2022-11-20T14:57:20;6.47;;;1.90;;
12760;SDS011;6444;49.742;6.114;2022-11-20T14:59:37;3.07;;;2.10;;
12760;SDS011;6444;49.742;6.114;2022-11-20T15:02:09;4.40;;;2.43;;
12760;SDS011;6444;49.742;6.114;2022-11-20T15:04:31;4.80;;;2.37;;
12760;SDS011;6444;49.742;6.114;2022-11-20T15:06:58;6.70;;;2.57;;
12760;SDS011;6444;49.742;6.114;2022-11-20T15:09:24;3.93;;;2.23;;
12760;SDS011;6444;49.742;6.114;2022-11-20T15:12:02;5.70;;;2.90;;
12760;SDS011;6444;49.742;6.114;2022-11-20T15:14:26;6.37;;;2.80;;
12760;SDS011;6444;49.742;6.114;2022-11-20T15:16:53;3.57;;;2.37;;
12760;SDS011;6444;49.742;6.114;2022-11-20T15:19:22;5.00;;;2.50;;
12760;SDS011;6444;49.742;6.114;2022-11-20T15:21:48;4.10;;;2.07;;
12760;SDS011;6444;49.742;6.114;2022-11-20T15:24:18;4.07;;;2.30;;
12760;SDS011;6444;49.742;6.114;2022-11-20T15:26:45;3.37;;;2.03;;
12760;SDS011;6444;49.742;6.114;2022-11-20T15:29:12;4.27;;;1.93;;
12760;SDS011;6444;49.742;6.114;2022-11-20T15:31:38;3.97;;;2.00;;
12760;SDS011;6444;49.742;6.114;2022-11-20T15:34:09;3.27;;;1.83;;
12760;SDS011;6444;49.742;6.114;2022-11-20T15:36:34;5.70;;;2.40;;
12760;SDS011;6444;49.742;6.114;2022-11-20T15:39:00;4.40;;;1.93;;
12760;SDS011;6444;49.742;6.114;2022-11-20T15:41:27;3.70;;;1.70;;
12760;SDS011;6444;49.742;6.114;2022-11-20T15:43:54;1.80;;;1.60;;
12760;SDS011;6444;49.742;6.114;2022-11-20T15:46:25;4.37;;;1.80;;
12760;SDS011;6444;49.742;6.114;2022-11-20T15:48:51;2.27;;;1.83;;
12760;SDS011;6444;49.742;6.114;2022-11-20T15:53:57;3.20;;;1.87;;
12760;SDS011;6444;49.742;6.114;2022-11-20T15:56:24;3.83;;;2.20;;
12760;SDS011;6444;49.742;6.114;2022-11-20T15:58:51;2.97;;;1.80;;
12760;SDS011;6444;49.742;6.114;2022-11-20T16:01:18;1.90;;;1.50;;
12760;SDS011;6444;49.742;6.114;2022-11-20T16:03:44;2.23;;;1.50;;
12760;SDS011;6444;49.742;6.114;2022-11-20T16:06:10;2.87;;;1.40;;
12760;SDS011;6444;49.742;6.114;2022-11-20T16:08:37;2.80;;;1.67;;
12760;SDS011;6444;49.742;6.114;2022-11-20T16:11:04;3.30;;;1.43;;
12760;SDS011;6444;49.742;6.114;2022-11-20T16:13:31;2.40;;;1.60;;
12760;SDS011;6444;49.742;6.114;2022-11-20T16:16:23;5.37;;;1.90;;